createdAt,value
2022-10-03T00:01:42.703Z,0.10
2022-10-03T00:04:28.471Z,0.20
2022-10-03T00:07:21.027Z,0.20
2022-10-03T00:09:53.385Z,0.40
2022-10-03T00:12:40.222Z,0.20
2022-10-03T00:15:27.649Z,0.45
2022-10-03T00:18:13.939Z,0.40
2022-10-03T00:20:50.382Z,0.22
2022-10-03T00:23:21.144Z,0.30
2022-10-03T00:26:25.526Z,0.30
2022-10-03T00:29:10.847Z,0.30
2022-10-03T00:31:56.623Z,0.40
2022-10-03T00:34:29.354Z,0.70
2022-10-03T00:37:12.158Z,0.45
2022-10-03T00:39:44.997Z,0.38
2022-10-03T00:42:14.954Z,0.40
2022-10-03T00:44:50.491Z,0.60
2022-10-03T00:47:28.147Z,0.22
2022-10-03T00:50:01.426Z,0.22
2022-10-03T00:52:27.962Z,0.35
2022-10-03T00:54:54.512Z,0.30
2022-10-03T00:57:42.251Z,0.28
2022-10-03T01:00:20.408Z,0.32
2022-10-03T01:02:52.904Z,0.40
2022-10-03T01:05:27.120Z,0.30
2022-10-03T01:08:23.074Z,0.30
2022-10-03T01:10:58.669Z,0.32
2022-10-03T01:13:33.925Z,0.40
2022-10-03T01:16:03.360Z,0.40
2022-10-03T01:18:37.677Z,0.30
2022-10-03T01:21:07.083Z,0.40
2022-10-03T01:23:52.497Z,0.30
2022-10-03T01:26:19.089Z,0.28
2022-10-03T01:29:14.154Z,0.40
2022-10-03T01:31:51.065Z,0.50
2022-10-03T01:34:47.385Z,0.40
2022-10-03T01:37:13.955Z,0.40
2022-10-03T01:39:50.429Z,0.55
2022-10-03T01:42:20.470Z,0.57
2022-10-03T01:44:52.126Z,0.40
2022-10-03T01:47:23.508Z,0.40
2022-10-03T01:49:52.844Z,0.47
2022-10-03T01:52:23.220Z,0.52
2022-10-03T01:54:59.287Z,0.38
2022-10-03T01:57:49.154Z,0.55
2022-10-03T02:00:17.750Z,0.60
2022-10-03T02:02:49.461Z,0.50
2022-10-03T02:05:19.363Z,0.50
2022-10-03T02:07:51.332Z,0.50
2022-10-03T02:10:22.585Z,0.60
2022-10-03T02:12:49.145Z,0.70
2022-10-03T02:15:27.331Z,0.60
2022-10-03T02:18:15.968Z,0.50
2022-10-03T02:21:01.217Z,0.57
2022-10-03T02:23:31.632Z,0.50
2022-10-03T02:25:58.245Z,0.50
2022-10-03T02:28:38.081Z,0.40
2022-10-03T02:31:23.578Z,0.30
2022-10-03T02:34:02.489Z,0.30
2022-10-03T02:36:32.064Z,0.70
2022-10-03T02:39:07.300Z,0.60
2022-10-03T02:41:57.197Z,0.70
2022-10-03T02:44:42.129Z,0.90
2022-10-03T02:47:14.638Z,0.80
2022-10-03T02:49:47.922Z,0.50
2022-10-03T02:52:14.486Z,0.70
2022-10-03T02:54:56.640Z,0.70
2022-10-03T02:57:23.276Z,0.60
2022-10-03T03:00:03.455Z,0.77
2022-10-03T03:03:05.539Z,0.75
2022-10-03T03:05:34.681Z,0.73
2022-10-03T03:08:01.262Z,0.95
2022-10-03T03:10:46.428Z,0.90
2022-10-03T03:13:31.931Z,0.80
2022-10-03T03:16:16.909Z,0.90
2022-10-03T03:18:49.495Z,0.77
2022-10-03T03:21:18.900Z,0.80
2022-10-03T03:23:45.692Z,0.80
2022-10-03T03:26:25.244Z,0.80
2022-10-03T03:29:10.581Z,1.02
2022-10-03T03:31:51.509Z,1.10
2022-10-03T03:34:22.184Z,0.80
2022-10-03T03:37:10.707Z,0.85
2022-10-03T03:39:46.338Z,0.90
2022-10-03T03:42:24.013Z,0.90
2022-10-03T03:44:50.831Z,0.80
2022-10-03T03:47:17.508Z,0.90
2022-10-03T03:49:59.146Z,0.90
2022-10-03T03:52:38.031Z,0.98
2022-10-03T03:55:24.305Z,1.10
2022-10-03T03:58:13.702Z,1.10
2022-10-03T04:01:00.341Z,0.85
2022-10-03T04:03:47.050Z,1.02
2022-10-03T04:06:25.612Z,0.80
2022-10-03T04:09:04.208Z,0.82
2022-10-03T04:11:33.834Z,1.30
2022-10-03T04:14:19.904Z,0.88
2022-10-03T04:17:16.302Z,0.82
2022-10-03T04:19:42.937Z,0.88
2022-10-03T04:22:12.080Z,1.15
2022-10-03T04:24:38.691Z,1.10
2022-10-03T04:27:13.924Z,0.90
2022-10-03T04:29:52.254Z,1.35
2022-10-03T04:32:24.216Z,0.90
2022-10-03T04:34:50.930Z,0.90
2022-10-03T04:37:36.082Z,1.02
2022-10-03T04:40:24.311Z,1.40
2022-10-03T04:43:09.960Z,1.10
2022-10-03T04:45:37.025Z,1.33
2022-10-03T04:48:09.749Z,1.20
2022-10-03T04:50:36.295Z,1.20
2022-10-03T04:53:12.039Z,1.05
2022-10-03T04:55:38.544Z,1.00
2022-10-03T04:58:13.630Z,1.40
2022-10-03T05:00:49.586Z,1.60
2022-10-03T05:03:28.796Z,1.20
2022-10-03T05:06:00.488Z,1.23
2022-10-03T05:08:36.025Z,1.17
2022-10-03T05:11:33.485Z,1.88
2022-10-03T05:14:03.593Z,4.47
2022-10-03T05:16:30.277Z,2.20
2022-10-03T05:19:03.004Z,1.42
2022-10-03T05:21:45.503Z,1.92
2022-10-03T05:24:15.615Z,1.80
2022-10-03T05:26:51.305Z,2.00
2022-10-03T05:29:27.974Z,2.22
2022-10-03T05:32:00.800Z,1.95
2022-10-03T05:34:30.575Z,1.55
2022-10-03T05:37:17.564Z,1.10
2022-10-03T05:39:56.671Z,1.38
2022-10-03T05:42:38.379Z,2.75
2022-10-03T05:45:15.082Z,4.63
2022-10-03T05:47:53.597Z,3.58
2022-10-03T05:50:29.047Z,3.00
2022-10-03T05:53:07.878Z,3.08
2022-10-03T05:55:45.793Z,2.50
2022-10-03T05:58:31.103Z,2.47
2022-10-03T06:00:57.722Z,2.25
2022-10-03T06:03:27.399Z,1.70
2022-10-03T06:06:12.302Z,1.60
2022-10-03T06:08:57.244Z,1.30
2022-10-03T06:11:40.934Z,1.60
2022-10-03T06:14:17.146Z,1.13
2022-10-03T06:16:55.796Z,1.58
2022-10-03T06:19:36.976Z,1.27
2022-10-03T06:22:10.305Z,1.27
2022-10-03T06:24:55.769Z,2.45
2022-10-03T06:27:40.462Z,1.67
2022-10-03T06:30:11.738Z,1.40
2022-10-03T06:32:47.777Z,1.30
2022-10-03T06:35:33.123Z,1.23
2022-10-03T06:38:02.529Z,1.10
2022-10-03T06:40:31.855Z,1.10
2022-10-03T06:42:58.398Z,1.35
2022-10-03T06:45:43.612Z,1.30
2022-10-03T06:48:28.808Z,1.50
2022-10-03T06:51:04.473Z,1.73
2022-10-03T06:53:40.041Z,1.77
2022-10-03T06:56:31.819Z,1.80
2022-10-03T06:59:07.011Z,2.88
2022-10-03T07:01:52.441Z,2.42
2022-10-03T07:04:24.884Z,2.30
2022-10-03T07:07:05.264Z,2.60
2022-10-03T07:09:34.909Z,2.60
2022-10-03T07:12:10.819Z,2.55
2022-10-03T07:14:58.871Z,2.40
2022-10-03T07:17:31.434Z,2.17
2022-10-03T07:20:18.131Z,2.40
2022-10-03T07:23:04.846Z,2.88
2022-10-03T07:25:50.540Z,2.40
2022-10-03T07:28:17.152Z,2.72
2022-10-03T07:31:01.991Z,2.28
2022-10-03T07:34:04.023Z,2.78
2022-10-03T07:36:49.323Z,2.40
2022-10-03T07:39:18.998Z,2.78
2022-10-03T07:42:03.773Z,2.08
2022-10-03T07:44:50.714Z,2.40
2022-10-03T07:47:35.645Z,2.78
2022-10-03T07:50:02.239Z,2.35
2022-10-03T07:52:43.975Z,2.60
2022-10-03T07:55:13.439Z,2.95
2022-10-03T07:58:06.032Z,2.10
2022-10-03T08:00:33.379Z,2.05
2022-10-03T08:03:22.425Z,2.17
2022-10-03T08:05:58.136Z,2.10
2022-10-03T08:08:43.291Z,2.17
2022-10-03T08:11:28.777Z,2.22
2022-10-03T08:14:08.535Z,2.05
2022-10-03T08:16:58.201Z,1.88
2022-10-03T08:19:36.962Z,1.90
2022-10-03T08:22:03.586Z,2.22
2022-10-03T08:24:49.045Z,1.88
2022-10-03T08:27:24.829Z,2.38
2022-10-03T08:30:01.052Z,2.45
2022-10-03T08:32:30.707Z,2.20
2022-10-03T08:35:06.020Z,2.20
2022-10-03T08:38:04.242Z,1.80
2022-10-03T08:40:34.045Z,1.80
2022-10-03T08:43:03.678Z,2.03
2022-10-03T08:45:45.391Z,2.40
2022-10-03T08:48:34.994Z,2.20
2022-10-03T08:51:22.967Z,2.55
2022-10-03T08:53:55.531Z,2.53
2022-10-03T08:56:27.832Z,2.00
2022-10-03T08:59:12.860Z,2.00
2022-10-03T09:01:42.835Z,1.92
2022-10-03T09:04:12.786Z,2.00
2022-10-03T09:06:52.699Z,1.90
2022-10-03T09:09:25.931Z,2.45
2022-10-03T09:12:01.361Z,2.00
2022-10-03T09:14:36.939Z,2.42
2022-10-03T09:17:21.985Z,2.28
2022-10-03T09:20:03.574Z,2.35
2022-10-03T09:22:49.818Z,2.42
2022-10-03T09:25:22.285Z,2.22
2022-10-03T09:27:57.687Z,1.92
2022-10-03T09:30:36.259Z,2.30
2022-10-03T09:33:03.451Z,2.42
2022-10-03T09:35:45.361Z,2.15
2022-10-03T09:38:27.523Z,2.65
2022-10-03T09:40:54.077Z,2.10
2022-10-03T09:43:29.842Z,2.28
2022-10-03T09:46:15.153Z,2.10
2022-10-03T09:48:41.772Z,2.20
2022-10-03T09:51:09.309Z,1.73
2022-10-03T09:53:38.727Z,1.73
2022-10-03T09:56:19.942Z,2.13
2022-10-03T09:59:08.238Z,1.70
2022-10-03T10:01:34.765Z,1.80
2022-10-03T10:04:10.577Z,2.42
2022-10-03T10:06:57.120Z,2.13
2022-10-03T10:09:42.602Z,1.73
2022-10-03T10:12:27.914Z,2.10
2022-10-03T10:15:13.725Z,1.98
2022-10-03T10:17:45.088Z,1.70
2022-10-03T10:20:20.609Z,1.73
2022-10-03T10:23:04.432Z,1.77
2022-10-03T10:25:33.956Z,1.65
2022-10-03T10:28:03.508Z,1.67
2022-10-03T10:30:48.781Z,1.83
2022-10-03T10:33:34.041Z,1.90
2022-10-03T10:36:19.123Z,1.40
2022-10-03T10:39:04.530Z,1.30
2022-10-03T10:41:33.874Z,1.48
2022-10-03T10:44:19.285Z,1.70
2022-10-03T10:46:46.024Z,1.55
2022-10-03T10:49:23.129Z,1.33
2022-10-03T10:52:08.362Z,1.70
2022-10-03T10:54:37.947Z,1.58
2022-10-03T10:57:23.079Z,1.52
2022-10-03T10:59:52.495Z,1.48
2022-10-03T11:02:34.562Z,1.30
2022-10-03T11:05:19.904Z,1.50
2022-10-03T11:08:05.252Z,1.42
2022-10-03T11:10:52.435Z,1.13
2022-10-03T11:13:41.303Z,1.40
2022-10-03T11:16:26.172Z,1.10
2022-10-03T11:19:11.625Z,1.20
2022-10-03T11:21:47.006Z,1.33
2022-10-03T11:24:16.380Z,1.10
2022-10-03T11:26:45.883Z,1.27
2022-10-03T11:29:18.310Z,1.38
2022-10-03T11:32:05.388Z,1.48
2022-10-03T11:34:32.020Z,1.23
2022-10-03T11:37:09.046Z,1.10
2022-10-03T11:39:38.681Z,1.13
2022-10-03T11:42:18.563Z,1.13
2022-10-03T11:44:50.866Z,1.20
2022-10-03T11:47:37.661Z,1.42
2022-10-03T11:50:10.113Z,1.30
2022-10-03T11:52:36.653Z,1.10
2022-10-03T11:55:18.633Z,1.20
2022-10-03T11:57:49.980Z,1.17
2022-10-03T12:00:21.108Z,1.13
2022-10-03T12:03:03.175Z,1.30
2022-10-03T12:05:32.642Z,1.20
2022-10-03T12:08:53.252Z,1.33
2022-10-03T12:11:24.093Z,0.90
2022-10-03T12:14:11.419Z,1.80
2022-10-03T12:16:47.234Z,1.30
2022-10-03T12:19:30.996Z,1.00
2022-10-03T12:22:02.048Z,1.27
2022-10-03T12:24:30.854Z,1.58
2022-10-03T12:27:13.923Z,1.38
2022-10-03T12:29:45.762Z,1.25
2022-10-03T12:32:17.964Z,1.10
2022-10-03T12:34:50.238Z,1.38
2022-10-03T12:37:35.246Z,1.30
2022-10-03T12:40:20.619Z,1.30
2022-10-03T12:42:48.940Z,1.30
2022-10-03T12:45:28.196Z,1.30
2022-10-03T12:47:58.471Z,1.45
2022-10-03T12:50:43.758Z,1.25
2022-10-03T12:53:16.559Z,1.17
2022-10-03T12:55:59.827Z,1.40
2022-10-03T12:58:46.591Z,1.30
2022-10-03T13:01:21.096Z,2.10
2022-10-03T13:03:54.157Z,1.33
2022-10-03T13:06:44.457Z,1.13
2022-10-03T13:09:39.310Z,1.75
2022-10-03T13:12:16.552Z,1.42
2022-10-03T13:14:46.231Z,1.25
2022-10-03T13:17:28.704Z,1.35
2022-10-03T13:19:59.935Z,1.30
2022-10-03T13:22:36.174Z,1.15
2022-10-03T13:25:05.895Z,1.17
2022-10-03T13:27:32.472Z,1.38
2022-10-03T13:30:14.515Z,1.48
2022-10-03T13:32:43.591Z,1.25
2022-10-03T13:35:32.035Z,1.42
2022-10-03T13:37:58.654Z,1.33
2022-10-03T13:40:27.167Z,1.50
2022-10-03T13:42:54.300Z,1.58
2022-10-03T13:45:25.234Z,1.38
2022-10-03T13:47:55.735Z,1.50
2022-10-03T13:50:31.307Z,1.15
2022-10-03T13:53:01.258Z,1.90
2022-10-03T13:55:33.809Z,1.13
2022-10-03T13:58:06.396Z,1.45
2022-10-03T14:01:11.580Z,1.40
2022-10-03T14:03:57.158Z,1.35
2022-10-03T14:06:26.665Z,1.38
2022-10-03T14:08:53.314Z,1.23
2022-10-03T14:11:33.573Z,1.52
2022-10-03T14:14:03.204Z,1.50
2022-10-03T14:16:31.542Z,1.40
2022-10-03T14:19:04.848Z,1.85
2022-10-03T14:21:53.224Z,1.15
2022-10-03T14:24:25.200Z,1.30
2022-10-03T14:27:02.432Z,1.40
2022-10-03T14:29:34.960Z,1.60
2022-10-03T14:32:17.574Z,1.70
2022-10-03T14:34:57.739Z,1.60
2022-10-03T14:37:35.345Z,1.73
2022-10-03T14:40:27.989Z,1.85
2022-10-03T14:43:14.788Z,1.70
2022-10-03T14:45:44.315Z,1.67
2022-10-03T14:48:31.672Z,1.30
2022-10-03T14:51:06.869Z,1.40
2022-10-03T14:53:33.716Z,1.30
2022-10-03T14:56:06.520Z,2.08
2022-10-03T14:58:38.365Z,4.07
2022-10-03T15:01:04.978Z,2.17
2022-10-03T15:03:38.726Z,2.40
2022-10-03T15:06:19.609Z,1.70
2022-10-03T15:08:51.800Z,1.90
2022-10-03T15:11:24.055Z,1.90
2022-10-03T15:13:53.866Z,2.15
2022-10-03T15:16:21.893Z,2.05
2022-10-03T15:19:10.129Z,1.92
2022-10-03T15:21:38.572Z,1.55
2022-10-03T15:24:06.738Z,1.55
2022-10-03T15:26:34.869Z,1.60
2022-10-03T15:29:03.913Z,2.00
2022-10-03T15:31:31.322Z,1.50
2022-10-03T15:33:59.196Z,1.67
2022-10-03T15:36:28.336Z,1.90
2022-10-03T15:38:56.500Z,1.58
2022-10-03T15:41:42.149Z,1.85
2022-10-03T15:44:19.618Z,1.50
2022-10-03T15:46:48.986Z,1.65
2022-10-03T15:49:30.999Z,1.42
2022-10-03T15:51:59.918Z,1.40
2022-10-03T15:54:29.919Z,2.33
2022-10-03T15:56:58.724Z,1.95
2022-10-03T15:59:28.269Z,1.58
2022-10-03T16:01:55.798Z,1.35
2022-10-03T16:04:28.083Z,2.00
2022-10-03T16:06:54.671Z,1.80
2022-10-03T16:09:39.972Z,1.63
2022-10-03T16:12:25.530Z,1.70
2022-10-03T16:15:06.933Z,1.70
2022-10-03T16:17:43.136Z,1.60
2022-10-03T16:20:28.979Z,1.70
2022-10-03T16:22:57.266Z,1.58
2022-10-03T16:25:23.815Z,1.90
2022-10-03T16:27:58.792Z,1.52
2022-10-03T16:30:29.922Z,1.50
2022-10-03T16:33:05.834Z,1.65
2022-10-03T16:35:44.881Z,1.90
2022-10-03T16:38:19.954Z,1.88
2022-10-03T16:40:52.559Z,1.80
2022-10-03T16:43:19.424Z,1.55
2022-10-03T16:45:46.932Z,1.80
2022-10-03T16:48:38.091Z,1.88
2022-10-03T16:51:06.585Z,1.70
2022-10-03T16:53:33.530Z,2.25
2022-10-03T16:56:06.381Z,2.05
2022-10-03T16:58:37.340Z,2.05
2022-10-03T17:01:26.491Z,2.10
2022-10-03T17:03:57.844Z,2.10
2022-10-03T17:06:28.731Z,2.17
2022-10-03T17:08:59.428Z,1.92
2022-10-03T17:11:27.535Z,1.67
2022-10-03T17:13:55.935Z,1.65
2022-10-03T17:16:37.511Z,1.60
2022-10-03T17:19:14.413Z,1.80
2022-10-03T17:21:43.421Z,1.55
2022-10-03T17:24:14.676Z,1.90
2022-10-03T17:26:42.760Z,1.77
2022-10-03T17:29:09.347Z,1.70
2022-10-03T17:31:39.361Z,2.13
2022-10-03T17:34:09.486Z,1.80
2022-10-03T17:36:56.645Z,2.10
2022-10-03T17:39:26.256Z,2.47
2022-10-03T17:41:56.467Z,1.85
2022-10-03T17:44:33.957Z,1.63
2022-10-03T17:47:06.689Z,1.60
2022-10-03T17:49:52.243Z,2.05
2022-10-03T17:52:20.203Z,1.90
2022-10-03T17:54:47.938Z,1.83
2022-10-03T17:57:23.805Z,2.13
2022-10-03T18:00:02.625Z,2.53
2022-10-03T18:02:34.455Z,2.60
2022-10-03T18:05:21.394Z,2.58
2022-10-03T18:07:50.750Z,2.47
2022-10-03T18:10:25.290Z,2.58
2022-10-03T18:12:54.157Z,2.63
2022-10-03T18:15:50.675Z,2.40
2022-10-03T18:18:17.372Z,2.30
2022-10-03T18:20:47.141Z,2.30
2022-10-03T18:23:50.113Z,2.30
2022-10-03T18:26:21.043Z,2.67
2022-10-03T18:29:05.937Z,2.55
2022-10-03T18:31:35.207Z,2.70
2022-10-03T18:34:07.340Z,3.22
2022-10-03T18:36:44.816Z,2.65
2022-10-03T18:39:18.745Z,2.45
2022-10-03T18:41:47.612Z,2.42
2022-10-03T18:44:18.852Z,2.67
2022-10-03T18:46:50.719Z,2.50
2022-10-03T18:49:36.003Z,2.30
2022-10-03T18:52:16.459Z,2.97
2022-10-03T18:55:13.294Z,2.25
2022-10-03T18:58:13.448Z,2.05
2022-10-03T19:00:51.963Z,2.10
2022-10-03T19:03:21.649Z,2.50
2022-10-03T19:05:54.959Z,2.40
2022-10-03T19:08:24.962Z,2.83
2022-10-03T19:11:00.133Z,2.40
2022-10-03T19:13:41.703Z,2.60
2022-10-03T19:16:14.345Z,2.97
2022-10-03T19:18:42.687Z,3.45
2022-10-03T19:21:18.437Z,2.83
2022-10-03T19:23:47.409Z,3.00
2022-10-03T19:26:26.727Z,3.45
2022-10-03T19:28:56.421Z,3.15
2022-10-03T19:31:35.341Z,3.15
2022-10-03T19:34:07.524Z,3.80
2022-10-03T19:36:37.095Z,3.50
2022-10-03T19:39:04.286Z,3.40
2022-10-03T19:41:36.974Z,3.08
2022-10-03T19:44:05.879Z,3.45
2022-10-03T19:46:48.433Z,3.88
2022-10-03T19:49:21.290Z,3.65
2022-10-03T19:51:48.408Z,3.45
2022-10-03T19:54:34.229Z,3.53
2022-10-03T19:57:04.585Z,3.33
2022-10-03T19:59:37.062Z,3.40
2022-10-03T20:02:05.356Z,3.50
2022-10-03T20:04:36.283Z,2.92
2022-10-03T20:07:12.767Z,3.05
2022-10-03T20:09:43.112Z,2.85
2022-10-03T20:12:12.059Z,4.05
2022-10-03T20:14:41.406Z,3.38
2022-10-03T20:17:12.401Z,3.60
2022-10-03T20:20:17.512Z,2.83
2022-10-03T20:22:44.557Z,3.13
2022-10-03T20:25:43.555Z,3.15
2022-10-03T20:28:17.491Z,2.95
2022-10-03T20:30:52.260Z,3.20
2022-10-03T20:33:22.159Z,3.50
2022-10-03T20:35:54.740Z,3.10
2022-10-03T20:38:32.275Z,3.28
2022-10-03T20:41:05.397Z,3.33
2022-10-03T20:43:44.398Z,2.90
2022-10-03T20:46:11.125Z,3.20
2022-10-03T20:48:40.759Z,3.00
2022-10-03T20:51:19.500Z,3.00
2022-10-03T20:53:46.172Z,3.78
2022-10-03T20:56:14.443Z,3.17
2022-10-03T20:58:51.849Z,2.92
2022-10-03T21:01:28.103Z,3.30
2022-10-03T21:04:06.817Z,3.28
2022-10-03T21:06:42.784Z,3.50
2022-10-03T21:09:16.738Z,3.47
2022-10-03T21:11:44.463Z,3.47
2022-10-03T21:14:15.225Z,3.58
2022-10-03T21:16:46.983Z,3.75
2022-10-03T21:19:19.952Z,3.22
2022-10-03T21:21:48.632Z,3.35
2022-10-03T21:24:15.291Z,3.30
2022-10-03T21:26:52.410Z,3.67
2022-10-03T21:29:25.101Z,3.20
2022-10-03T21:31:51.778Z,3.28
2022-10-03T21:34:34.335Z,3.40
2022-10-03T21:37:10.156Z,3.47
2022-10-03T21:40:03.186Z,3.22
2022-10-03T21:42:47.892Z,3.78
2022-10-03T21:45:20.483Z,4.18
2022-10-03T21:47:58.736Z,3.15
2022-10-03T21:50:28.336Z,3.55
2022-10-03T21:53:24.337Z,3.60
2022-10-03T21:55:54.053Z,4.00
2022-10-03T21:58:20.603Z,3.50
2022-10-03T22:01:03.458Z,3.63
2022-10-03T22:03:35.808Z,3.55
2022-10-03T22:06:23.635Z,3.95
2022-10-03T22:08:50.449Z,3.90
2022-10-03T22:11:17.002Z,3.67
2022-10-03T22:13:55.939Z,3.72
2022-10-03T22:16:30.414Z,3.92
2022-10-03T22:19:09.321Z,4.20
2022-10-03T22:21:56.131Z,3.90
2022-10-03T22:24:29.383Z,4.13
2022-10-03T22:26:55.989Z,3.15
2022-10-03T22:29:39.424Z,3.05
2022-10-03T22:32:13.166Z,3.58
2022-10-03T22:35:09.258Z,3.67
2022-10-03T22:37:36.313Z,4.10
2022-10-03T22:40:03.543Z,4.28
2022-10-03T22:42:34.228Z,3.80
2022-10-03T22:45:02.691Z,3.67
2022-10-03T22:47:31.153Z,4.43
2022-10-03T22:50:00.449Z,4.57
2022-10-03T22:52:38.068Z,4.00
2022-10-03T22:55:05.921Z,3.65
2022-10-03T22:57:35.824Z,3.92
2022-10-03T23:00:11.711Z,4.40
2022-10-03T23:02:40.299Z,3.90
2022-10-03T23:05:21.397Z,4.28
2022-10-03T23:07:57.551Z,3.67
2022-10-03T23:10:39.443Z,3.50
2022-10-03T23:13:10.386Z,3.63
2022-10-03T23:15:38.771Z,3.72
2022-10-03T23:18:30.038Z,3.40
2022-10-03T23:21:02.519Z,4.53
2022-10-03T23:23:36.218Z,4.38
2022-10-03T23:26:18.252Z,3.97
2022-10-03T23:28:57.371Z,3.97
2022-10-03T23:31:43.082Z,3.47
2022-10-03T23:34:10.109Z,3.85
2022-10-03T23:36:56.669Z,3.65
2022-10-03T23:39:33.914Z,4.30
2022-10-03T23:42:04.306Z,3.67
2022-10-03T23:44:40.471Z,4.28
2022-10-03T23:47:09.237Z,3.78
2022-10-03T23:49:37.261Z,5.22
2022-10-03T23:52:04.916Z,3.85
2022-10-03T23:54:32.145Z,4.38
2022-10-03T23:57:03.876Z,4.43
2022-10-03T23:59:35.730Z,4.32
